Trimdon, United Kingdom
Current Conditions -  °F | °C
As of 10:50 AM on Friday 21 Nov 2014 (Local Time) from EGNV Reporting Station
Haze Haze  
Wind Chill: 44°   Ceiling: Unl
Heat Index: 46°   Visibility: 2.5mi
Dew Point: 45°   Wind: 6mph
Humidity: 93%   Direction: 120°ESE
Pressure: 30.12"   Gusts: NA
Location:  54.7°N, 1.43°W
Report Text: EGNV 211050Z 12005KT 4000 BR SCT026 08/07 Q1020
Loading
Personal Weather Stations






























Interactive Weather Map New forecast layout! Learn more

10-Day Weather Forecast

Advertisements
Track Severe Weather on mobile